createdAt,value
2022-12-11T00:01:18.852Z,100321.20
2022-12-11T00:03:48.532Z,100328.80
2022-12-11T00:06:21.428Z,100331.20
2022-12-11T00:08:54.692Z,100320.40
2022-12-11T00:11:23.648Z,100316.60
2022-12-11T00:13:51.652Z,100327.00
2022-12-11T00:16:23.808Z,100321.00
2022-12-11T00:18:55.841Z,100323.80
2022-12-11T00:21:23.701Z,100324.60
2022-12-11T00:23:52.183Z,100333.40
2022-12-11T00:26:20.163Z,100336.00
2022-12-11T00:28:48.770Z,100328.80
2022-12-11T00:31:18.997Z,100323.80
2022-12-11T00:33:49.413Z,100329.80
2022-12-11T00:36:24.355Z,100337.60
2022-12-11T00:38:54.193Z,100339.60
2022-12-11T00:41:22.540Z,100337.00
2022-12-11T00:43:50.537Z,100337.80
2022-12-11T00:46:18.981Z,100338.00
2022-12-11T00:48:48.656Z,100339.00
2022-12-11T00:51:18.334Z,100342.40
2022-12-11T00:53:46.229Z,100335.80
2022-12-11T00:56:22.355Z,100339.80
2022-12-11T00:58:50.582Z,100332.40
2022-12-11T01:01:23.925Z,100331.00
2022-12-11T01:03:53.753Z,100321.80
2022-12-11T01:06:26.538Z,100325.80
2022-12-11T01:09:14.967Z,100325.00
2022-12-11T01:11:44.121Z,100320.00
2022-12-11T01:14:14.511Z,100315.20
2022-12-11T01:16:42.492Z,100317.80
2022-12-11T01:19:10.409Z,100316.20
2022-12-11T01:21:38.272Z,100306.80
2022-12-11T01:24:06.547Z,100308.40
2022-12-11T01:26:34.648Z,100305.60
2022-12-11T01:29:02.653Z,100305.60
2022-12-11T01:31:30.596Z,100307.20
2022-12-11T01:33:58.539Z,100298.60
2022-12-11T01:36:26.600Z,100297.20
2022-12-11T01:38:54.598Z,100293.80
2022-12-11T01:41:22.563Z,100294.80
2022-12-11T01:44:07.537Z,100289.40
2022-12-11T01:46:37.050Z,100294.40
2022-12-11T01:49:11.268Z,100285.60
2022-12-11T01:52:15.849Z,100283.00
2022-12-11T01:54:43.927Z,100278.60
2022-12-11T01:57:14.679Z,100280.20
2022-12-11T01:59:46.640Z,100277.40
2022-12-11T02:02:22.621Z,100275.20
2022-12-11T02:04:50.599Z,100276.60
2022-12-11T02:07:18.532Z,100280.80
2022-12-11T02:09:48.605Z,100269.20
2022-12-11T02:12:34.035Z,100268.00
2022-12-11T02:15:41.729Z,100267.20
2022-12-11T02:18:40.012Z,100261.80
2022-12-11T02:21:25.090Z,100258.60
2022-12-11T02:24:14.023Z,100260.40
2022-12-11T02:26:59.831Z,100264.40
2022-12-11T02:29:42.578Z,100257.80
2022-12-11T02:32:32.319Z,100249.40
2022-12-11T02:35:35.726Z,100250.20
2022-12-11T02:38:10.998Z,100255.40
2022-12-11T02:40:42.608Z,100269.60
2022-12-11T02:43:14.791Z,100276.60
2022-12-11T02:45:46.455Z,100264.20
2022-12-11T02:48:17.169Z,100268.20
2022-12-11T02:50:50.519Z,100272.40
2022-12-11T02:53:24.518Z,100273.60
2022-12-11T02:56:06.838Z,100266.00
2022-12-11T02:58:40.070Z,100261.60
2022-12-11T03:01:08.485Z,100252.40
2022-12-11T03:03:36.461Z,100268.00
2022-12-11T03:06:04.556Z,100271.80
2022-12-11T03:08:32.897Z,100271.20
2022-12-11T03:11:00.923Z,100263.60
2022-12-11T03:13:29.003Z,100255.80
2022-12-11T03:16:15.532Z,100263.80
2022-12-11T03:19:41.608Z,100261.00
2022-12-11T03:22:41.791Z,100261.00
2022-12-11T03:25:18.124Z,100254.00
2022-12-11T03:27:58.714Z,100257.00
2022-12-11T03:30:31.253Z,100250.20
2022-12-11T03:33:09.746Z,100253.00
2022-12-11T03:35:45.686Z,100257.60
2022-12-11T03:38:21.331Z,100255.60
2022-12-11T03:40:56.432Z,100249.80
2022-12-11T03:43:26.489Z,100248.80
2022-12-11T03:45:55.484Z,100243.00
2022-12-11T03:48:27.341Z,100241.20
2022-12-11T03:50:56.197Z,100240.60
2022-12-11T03:53:27.260Z,100246.00
2022-12-11T03:55:59.348Z,100249.20
2022-12-11T03:58:27.410Z,100244.80
2022-12-11T04:00:55.340Z,100238.20
2022-12-11T04:03:23.281Z,100243.80
2022-12-11T04:05:57.092Z,100242.40
2022-12-11T04:08:25.281Z,100244.40
2022-12-11T04:11:13.328Z,100239.20
2022-12-11T04:13:42.207Z,100235.40
2022-12-11T04:16:10.214Z,100230.60
2022-12-11T04:18:56.856Z,100235.60
2022-12-11T04:21:43.452Z,100236.00
2022-12-11T04:24:17.223Z,100235.40
2022-12-11T04:26:47.392Z,100228.40
2022-12-11T04:29:15.559Z,100225.00
2022-12-11T04:31:43.633Z,100220.60
2022-12-11T04:34:11.901Z,100227.60
2022-12-11T04:36:39.809Z,100233.00
2022-12-11T04:39:07.845Z,100231.80
2022-12-11T04:41:37.389Z,100237.20
2022-12-11T04:44:05.928Z,100233.40
2022-12-11T04:46:35.240Z,100226.60
2022-12-11T04:49:03.361Z,100235.20
2022-12-11T04:51:31.428Z,100236.80
2022-12-11T04:53:59.884Z,100232.00
2022-12-11T04:56:27.808Z,100228.40
2022-12-11T04:58:55.640Z,100225.80
2022-12-11T05:01:23.907Z,100225.20
2022-12-11T05:03:51.855Z,100216.40
2022-12-11T05:06:19.732Z,100221.40
2022-12-11T05:08:47.635Z,100218.00
2022-12-11T05:11:16.873Z,100215.40
2022-12-11T05:13:45.723Z,100211.20
2022-12-11T05:16:17.016Z,100211.40
2022-12-11T05:18:45.144Z,100210.80
2022-12-11T05:21:15.619Z,100211.60
2022-12-11T05:23:43.819Z,100209.80
2022-12-11T05:26:17.072Z,100210.60
2022-12-11T05:28:46.925Z,100206.40
2022-12-11T05:31:19.269Z,100208.40
2022-12-11T05:33:50.404Z,100205.80
2022-12-11T05:36:33.298Z,100202.80
2022-12-11T05:39:04.082Z,100198.80
2022-12-11T05:41:33.032Z,100196.00
2022-12-11T05:44:00.958Z,100184.60
2022-12-11T05:46:31.311Z,100181.60
2022-12-11T05:49:02.485Z,100183.80
2022-12-11T05:51:31.098Z,100184.80
2022-12-11T05:53:59.334Z,100177.80
2022-12-11T05:56:31.623Z,100175.00
2022-12-11T05:59:01.745Z,100182.60
2022-12-11T06:01:40.888Z,100181.80
2022-12-11T06:04:11.845Z,100185.00
2022-12-11T06:06:40.775Z,100182.60
2022-12-11T06:09:08.706Z,100179.00
2022-12-11T06:11:36.625Z,100178.20
2022-12-11T06:14:04.997Z,100173.80
2022-12-11T06:16:33.233Z,100173.60
2022-12-11T06:19:01.319Z,100174.00
2022-12-11T06:21:33.087Z,100176.80
2022-12-11T06:24:04.112Z,100172.40
2022-12-11T06:26:33.089Z,100169.60
2022-12-11T06:29:01.015Z,100168.20
2022-12-11T06:31:29.114Z,100167.00
2022-12-11T06:33:57.109Z,100165.20
2022-12-11T06:36:25.601Z,100165.00
2022-12-11T06:38:55.500Z,100160.80
2022-12-11T06:41:23.510Z,100162.60
2022-12-11T06:43:51.505Z,100164.60
2022-12-11T06:46:20.619Z,100167.80
2022-12-11T06:48:49.720Z,100165.60
2022-12-11T06:51:22.514Z,100170.60
2022-12-11T06:53:56.527Z,100178.40
2022-12-11T06:56:25.421Z,100184.40
2022-12-11T06:58:53.722Z,100186.20
2022-12-11T07:01:28.360Z,100180.40
2022-12-11T07:03:59.282Z,100178.40
2022-12-11T07:06:28.955Z,100181.60
2022-12-11T07:08:57.333Z,100175.20
2022-12-11T07:11:25.229Z,100176.20
2022-12-11T07:13:53.062Z,100176.20
2022-12-11T07:16:21.646Z,100173.00
2022-12-11T07:18:51.567Z,100181.80
2022-12-11T07:21:21.281Z,100176.00
2022-12-11T07:23:50.492Z,100167.00
2022-12-11T07:26:22.244Z,100169.40
2022-12-11T07:28:50.497Z,100166.00
2022-12-11T07:31:25.178Z,100166.60
2022-12-11T07:33:55.974Z,100167.60
2022-12-11T07:36:24.974Z,100156.40
2022-12-11T07:38:54.131Z,100152.60
2022-12-11T07:41:23.416Z,100153.80
2022-12-11T07:43:51.462Z,100142.80
2022-12-11T07:46:25.129Z,100145.00
2022-12-11T07:48:53.374Z,100144.40
2022-12-11T07:51:28.586Z,100148.60
2022-12-11T07:54:02.877Z,100148.20
2022-12-11T07:56:32.014Z,100146.40
2022-12-11T07:59:02.760Z,100139.80
2022-12-11T08:01:37.036Z,100136.60
2022-12-11T08:04:14.154Z,100139.20
2022-12-11T08:06:43.407Z,100140.40
2022-12-11T08:09:20.892Z,100143.40
2022-12-11T08:11:51.121Z,100159.00
2022-12-11T08:14:20.415Z,100154.60
2022-12-11T08:16:49.924Z,100154.80
2022-12-11T08:19:18.441Z,100152.40
2022-12-11T08:21:47.069Z,100152.80
2022-12-11T08:24:20.334Z,100156.60
2022-12-11T08:26:48.862Z,100155.00
2022-12-11T08:29:16.922Z,100157.80
2022-12-11T08:31:44.871Z,100161.60
2022-12-11T08:34:14.327Z,100163.20
2022-12-11T08:36:42.521Z,100165.40
2022-12-11T08:39:10.507Z,100166.60
2022-12-11T08:41:38.364Z,100168.60
2022-12-11T08:44:16.271Z,100172.80
2022-12-11T08:46:45.970Z,100190.40
2022-12-11T08:49:15.385Z,100187.00
2022-12-11T08:51:43.367Z,100193.80
2022-12-11T08:54:11.917Z,100194.40
2022-12-11T08:56:40.176Z,100198.60
2022-12-11T08:59:08.375Z,100193.60
2022-12-11T09:01:37.852Z,100194.40
2022-12-11T09:04:06.340Z,100195.40
2022-12-11T09:06:34.269Z,100197.20
2022-12-11T09:09:04.736Z,100192.60
2022-12-11T09:11:37.832Z,100188.60
2022-12-11T09:14:07.831Z,100195.60
2022-12-11T09:16:40.818Z,100195.20
2022-12-11T09:19:14.886Z,100194.80
2022-12-11T09:21:46.328Z,100197.40
2022-12-11T09:24:16.315Z,100194.40
2022-12-11T09:26:44.306Z,100196.80
2022-12-11T09:29:12.747Z,100190.40
2022-12-11T09:31:41.192Z,100188.00
2022-12-11T09:34:12.851Z,100177.40
2022-12-11T09:36:45.205Z,100175.40
2022-12-11T09:39:18.173Z,100174.20
2022-12-11T09:42:33.546Z,100171.80
2022-12-11T09:45:04.629Z,100172.20
2022-12-11T09:47:42.829Z,100172.40
2022-12-11T09:50:23.764Z,100170.60
2022-12-11T09:53:20.500Z,100176.80
2022-12-11T09:56:01.589Z,100171.20
2022-12-11T09:58:41.510Z,100167.20
2022-12-11T10:01:22.521Z,100169.60
2022-12-11T10:04:40.040Z,100159.80
2022-12-11T10:07:38.366Z,100156.40
2022-12-11T10:10:23.452Z,100160.20
2022-12-11T10:13:02.104Z,100156.20
2022-12-11T10:16:01.359Z,100157.60
2022-12-11T10:18:31.405Z,100158.00
2022-12-11T10:21:03.520Z,100158.00
2022-12-11T10:23:42.095Z,100149.60
2022-12-11T10:26:19.881Z,100149.00
2022-12-11T10:28:48.904Z,100142.80
2022-12-11T10:31:28.775Z,100142.40
2022-12-11T10:34:12.315Z,100143.20
2022-12-11T10:36:43.511Z,100138.80
2022-12-11T10:39:18.485Z,100134.20
2022-12-11T10:41:49.972Z,100130.20
2022-12-11T10:44:31.197Z,100122.80
2022-12-11T10:47:18.569Z,100117.80
2022-12-11T10:50:02.669Z,100113.40
2022-12-11T10:52:44.140Z,100110.20
2022-12-11T10:55:32.229Z,100104.40
2022-12-11T10:58:22.523Z,100096.60
2022-12-11T11:01:21.641Z,100090.80
2022-12-11T11:03:57.682Z,100080.60
2022-12-11T11:06:27.404Z,100080.00
2022-12-11T11:08:59.681Z,100075.40
2022-12-11T11:11:39.499Z,100065.20
2022-12-11T11:14:20.690Z,100070.20
2022-12-11T11:16:52.557Z,100067.00
2022-12-11T11:19:28.026Z,100064.80
2022-12-11T11:22:09.502Z,100054.40
2022-12-11T11:24:44.396Z,100050.00
2022-12-11T11:27:28.526Z,100041.40
2022-12-11T11:30:02.067Z,100048.40
2022-12-11T11:32:41.196Z,100046.60
2022-12-11T11:35:17.162Z,100037.80
2022-12-11T11:37:55.934Z,100031.20
2022-12-11T11:40:38.670Z,100028.00
2022-12-11T11:43:44.709Z,100026.00
2022-12-11T11:46:23.905Z,100014.80
2022-12-11T11:49:00.617Z,100017.40
2022-12-11T11:52:03.446Z,100012.60
2022-12-11T11:54:43.262Z,100010.40
2022-12-11T11:57:37.869Z,100009.20
2022-12-11T12:00:23.817Z,100002.60
2022-12-11T12:03:14.157Z,100006.20
2022-12-11T12:06:15.325Z,100003.60
2022-12-11T12:09:09.381Z,100000.00
2022-12-11T12:11:56.061Z,100005.60
2022-12-11T12:15:02.100Z,100003.40
2022-12-11T12:18:02.249Z,99995.20
2022-12-11T12:21:12.632Z,99994.20
2022-12-11T12:23:57.123Z,99985.60
2022-12-11T12:26:37.576Z,99990.60
2022-12-11T12:29:32.063Z,99986.00
2022-12-11T12:32:14.431Z,99990.40
2022-12-11T12:35:14.922Z,99987.60
2022-12-11T12:37:58.006Z,99981.20
2022-12-11T12:40:47.458Z,99977.20
2022-12-11T12:43:36.397Z,99977.00
2022-12-11T12:46:09.630Z,99972.60
2022-12-11T12:48:38.240Z,99971.80
2022-12-11T12:51:07.233Z,99968.40
2022-12-11T12:53:37.453Z,99964.80
2022-12-11T12:56:07.428Z,99962.00
2022-12-11T12:58:35.631Z,99956.40
2022-12-11T13:01:26.327Z,99961.40
2022-12-11T13:04:05.898Z,99959.00
2022-12-11T13:06:45.461Z,99961.40
2022-12-11T13:09:22.495Z,99954.40
2022-12-11T13:11:54.099Z,99955.20
2022-12-11T13:14:32.727Z,99952.40
2022-12-11T13:17:32.504Z,99960.80
2022-12-11T13:20:23.586Z,99955.40
2022-12-11T13:23:19.710Z,99955.00
2022-12-11T13:25:51.071Z,99949.80
2022-12-11T13:28:30.119Z,99957.80
2022-12-11T13:31:16.533Z,99952.00
2022-12-11T13:33:51.044Z,99958.80
2022-12-11T13:36:31.503Z,99955.60
2022-12-11T13:39:06.651Z,99953.00
2022-12-11T13:41:41.051Z,99954.40
2022-12-11T13:44:26.540Z,99959.60
2022-12-11T13:47:02.280Z,99950.80
2022-12-11T13:49:37.333Z,99960.40
2022-12-11T13:52:07.590Z,99959.00
2022-12-11T13:54:36.588Z,99961.80
2022-12-11T13:57:21.498Z,99960.40
2022-12-11T13:59:55.748Z,99959.00
2022-12-11T14:02:35.717Z,99958.60
2022-12-11T14:05:10.051Z,99959.00
2022-12-11T14:07:48.618Z,99958.60
2022-12-11T14:10:29.449Z,99958.00
2022-12-11T14:13:33.527Z,99953.20
2022-12-11T14:16:02.994Z,99948.60
2022-12-11T14:18:35.512Z,99937.20
2022-12-11T14:21:07.401Z,99945.60
2022-12-11T14:23:41.094Z,99933.20
2022-12-11T14:26:26.920Z,99938.60
2022-12-11T14:28:56.153Z,99928.60
2022-12-11T14:31:44.599Z,99923.00
2022-12-11T14:34:27.724Z,99920.40
2022-12-11T14:36:57.094Z,99922.20
2022-12-11T14:39:54.593Z,99922.00
2022-12-11T14:42:29.948Z,99927.60
2022-12-11T14:45:23.164Z,99930.80
2022-12-11T14:47:55.044Z,99924.80
2022-12-11T14:50:38.180Z,99922.00
2022-12-11T14:53:23.692Z,99916.80
2022-12-11T14:55:53.183Z,99919.60
2022-12-11T14:58:27.173Z,99903.00
2022-12-11T15:01:00.953Z,99914.40
2022-12-11T15:03:41.110Z,99909.00
2022-12-11T15:06:29.107Z,99908.40
2022-12-11T15:08:57.511Z,99905.00
2022-12-11T15:11:33.000Z,99913.80
2022-12-11T15:14:05.668Z,99898.00
2022-12-11T15:16:41.081Z,99900.00
2022-12-11T15:19:31.143Z,99900.00
2022-12-11T15:22:09.828Z,99901.00
2022-12-11T15:24:43.929Z,99896.20
2022-12-11T15:27:37.727Z,99900.00
2022-12-11T15:30:18.209Z,99899.40
2022-12-11T15:32:46.608Z,99896.20
2022-12-11T15:35:25.633Z,99892.80
2022-12-11T15:37:56.587Z,99891.80
2022-12-11T15:40:25.686Z,99886.00
2022-12-11T15:42:55.223Z,99889.60
2022-12-11T15:45:28.648Z,99888.00
2022-12-11T15:47:57.720Z,99886.60
2022-12-11T15:50:28.914Z,99883.60
2022-12-11T15:52:57.831Z,99884.20
2022-12-11T15:55:29.829Z,99873.20
2022-12-11T15:58:07.336Z,99880.00
2022-12-11T16:00:35.934Z,99871.20
2022-12-11T16:03:04.023Z,99867.60
2022-12-11T16:05:32.093Z,99870.00
2022-12-11T16:08:00.128Z,99871.00
2022-12-11T16:10:28.204Z,99864.20
2022-12-11T16:12:59.947Z,99865.00
2022-12-11T16:15:27.817Z,99865.60
2022-12-11T16:18:11.961Z,99865.20
2022-12-11T16:20:42.968Z,99857.20
2022-12-11T16:23:13.427Z,99854.20
2022-12-11T16:25:46.320Z,99843.00
2022-12-11T16:28:18.737Z,99844.80
2022-12-11T16:30:47.464Z,99840.40
2022-12-11T16:33:17.968Z,99838.40
2022-12-11T16:35:46.189Z,99840.80
2022-12-11T16:38:15.967Z,99839.20
2022-12-11T16:40:46.845Z,99835.60
2022-12-11T16:43:15.013Z,99832.80
2022-12-11T16:45:43.403Z,99832.00
2022-12-11T16:48:11.464Z,99829.40
2022-12-11T16:50:40.455Z,99830.80
2022-12-11T16:53:08.415Z,99822.80
2022-12-11T16:55:36.286Z,99816.40
2022-12-11T16:58:09.745Z,99818.60
2022-12-11T17:00:39.181Z,99814.20
2022-12-11T17:03:07.170Z,99819.20
2022-12-11T17:05:36.383Z,99817.40
2022-12-11T17:08:04.394Z,99805.80
2022-12-11T17:10:32.448Z,99799.60
2022-12-11T17:13:00.527Z,99800.00
2022-12-11T17:15:28.440Z,99795.00
2022-12-11T17:18:12.788Z,99793.40
2022-12-11T17:23:42.446Z,99787.40
2022-12-11T17:25:08.733Z,99792.20
2022-12-11T17:27:36.698Z,99782.40
2022-12-11T17:30:08.261Z,99779.60
2022-12-11T17:32:36.419Z,99784.20
2022-12-11T17:35:04.717Z,99784.00
2022-12-11T17:37:35.400Z,99778.20
2022-12-11T17:40:05.821Z,99774.20
2022-12-11T17:42:34.072Z,99775.80
2022-12-11T17:45:02.337Z,99771.20
2022-12-11T17:47:30.240Z,99773.60
2022-12-11T17:49:58.211Z,99766.00
2022-12-11T17:52:32.341Z,99769.40
2022-12-11T17:55:03.263Z,99773.00
2022-12-11T17:57:31.924Z,99776.40
2022-12-11T18:00:00.103Z,99771.60
2022-12-11T18:02:34.712Z,99769.80
2022-12-11T18:05:05.913Z,99767.20
2022-12-11T18:07:38.027Z,99763.80
2022-12-11T18:10:08.311Z,99759.20
2022-12-11T18:12:36.499Z,99764.20
2022-12-11T18:15:14.528Z,99766.80
2022-12-11T18:17:42.618Z,99764.80
2022-12-11T18:20:16.800Z,99759.20
2022-12-11T18:22:44.722Z,99760.20
2022-12-11T18:25:13.013Z,99758.60
2022-12-11T18:27:41.250Z,99758.80
2022-12-11T18:30:12.898Z,99761.20
2022-12-11T18:32:43.056Z,99754.80
2022-12-11T18:35:12.188Z,99756.00
2022-12-11T18:37:41.401Z,99750.40
2022-12-11T18:40:14.354Z,99753.60
2022-12-11T18:42:42.347Z,99752.20
2022-12-11T18:45:11.035Z,99747.80
2022-12-11T18:47:39.312Z,99738.60
2022-12-11T18:50:08.382Z,99744.20
2022-12-11T18:52:36.504Z,99743.00
2022-12-11T18:55:05.211Z,99739.80
2022-12-11T18:57:33.515Z,99738.00
2022-12-11T19:00:07.517Z,99736.60
2022-12-11T19:02:36.192Z,99729.60
2022-12-11T19:05:05.090Z,99726.40
2022-12-11T19:07:33.258Z,99733.40
2022-12-11T19:10:01.341Z,99728.20
2022-12-11T19:12:29.205Z,99727.00
2022-12-11T19:14:57.114Z,99720.60
2022-12-11T19:17:25.072Z,99728.40
2022-12-11T19:19:53.458Z,99722.60
2022-12-11T19:22:21.430Z,99714.80
2022-12-11T19:24:49.317Z,99716.00
2022-12-11T19:27:17.528Z,99713.00
2022-12-11T19:29:45.362Z,99712.40
2022-12-11T19:32:13.300Z,99714.40
2022-12-11T19:34:41.427Z,99714.80
2022-12-11T19:37:09.568Z,99713.20
2022-12-11T19:39:41.142Z,99705.00
2022-12-11T19:42:09.102Z,99713.20
2022-12-11T19:44:39.745Z,99717.40
2022-12-11T19:47:07.768Z,99717.20
2022-12-11T19:49:35.679Z,99709.80
2022-12-11T19:52:04.925Z,99717.80
2022-12-11T19:54:32.972Z,99711.00
2022-12-11T19:57:00.944Z,99723.20
2022-12-11T19:59:28.871Z,99724.80
2022-12-11T20:01:56.873Z,99717.40
2022-12-11T20:04:24.796Z,99726.40
2022-12-11T20:06:52.750Z,99716.00
2022-12-11T20:09:20.747Z,99711.00
2022-12-11T20:11:48.896Z,99712.20
2022-12-11T20:14:26.180Z,99707.00
2022-12-11T20:17:13.826Z,99713.60
2022-12-11T20:19:43.226Z,99708.20
2022-12-11T20:22:11.987Z,99709.00
2022-12-11T20:24:40.096Z,99712.00
2022-12-11T20:27:09.010Z,99713.60
2022-12-11T20:29:38.034Z,99710.00
2022-12-11T20:32:06.113Z,99714.80
2022-12-11T20:34:34.023Z,99716.40
2022-12-11T20:37:01.900Z,99712.00
2022-12-11T20:39:30.797Z,99705.20
2022-12-11T20:41:58.782Z,99707.20
2022-12-11T20:44:26.656Z,99699.00
2022-12-11T20:46:54.860Z,99698.20
2022-12-11T20:49:22.732Z,99689.80
2022-12-11T20:51:50.666Z,99705.00
2022-12-11T20:54:18.744Z,99694.00
2022-12-11T20:56:47.117Z,99695.00
2022-12-11T20:59:15.719Z,99696.60
2022-12-11T21:01:44.597Z,99696.20
2022-12-11T21:04:12.568Z,99697.60
2022-12-11T21:06:42.165Z,99694.40
2022-12-11T21:09:17.847Z,99690.80
2022-12-11T21:11:46.161Z,99689.80
2022-12-11T21:14:15.922Z,99697.00
2022-12-11T21:16:44.505Z,99680.60
2022-12-11T21:19:17.107Z,99682.80
2022-12-11T21:21:46.457Z,99674.00
2022-12-11T21:24:21.415Z,99680.80
2022-12-11T21:26:50.124Z,99672.40
2022-12-11T21:29:18.404Z,99672.80
2022-12-11T21:31:46.283Z,99667.00
2022-12-11T21:34:22.061Z,99673.40
2022-12-11T21:36:57.079Z,99664.20
2022-12-11T21:39:28.672Z,99661.80
2022-12-11T21:41:58.303Z,99667.80
2022-12-11T21:45:58.882Z,99662.60
2022-12-11T21:47:14.249Z,99658.00
2022-12-11T21:49:42.271Z,99654.00
2022-12-11T21:52:10.954Z,99658.00
2022-12-11T21:54:39.096Z,99660.60
2022-12-11T21:57:07.362Z,99655.60
2022-12-11T21:59:35.930Z,99671.00
2022-12-11T22:02:04.679Z,99653.00
2022-12-11T22:04:37.950Z,99652.80
2022-12-11T22:07:05.945Z,99648.40
2022-12-11T22:09:33.891Z,99652.80
2022-12-11T22:12:01.903Z,99656.20
2022-12-11T22:14:31.510Z,99654.40
2022-12-11T22:16:59.715Z,99653.80
2022-12-11T22:19:32.322Z,99647.80
2022-12-11T22:22:00.785Z,99642.00
2022-12-11T22:24:28.757Z,99631.80
2022-12-11T22:26:56.697Z,99626.60
2022-12-11T22:29:24.720Z,99625.40
2022-12-11T22:31:53.555Z,99620.20
2022-12-11T22:34:22.474Z,99615.00
2022-12-11T22:36:51.179Z,99613.00
2022-12-11T22:39:19.113Z,99606.00
2022-12-11T22:41:46.987Z,99609.00
2022-12-11T22:44:21.457Z,99610.20
2022-12-11T22:46:50.440Z,99602.00
2022-12-11T22:49:20.482Z,99597.00
2022-12-11T22:51:49.260Z,99606.00
2022-12-11T22:54:17.153Z,99603.00
2022-12-11T22:56:45.140Z,99602.40
2022-12-11T22:59:13.060Z,99598.80
2022-12-11T23:01:41.189Z,99598.00
2022-12-11T23:04:09.030Z,99596.80
2022-12-11T23:06:36.945Z,99596.80
2022-12-11T23:09:04.889Z,99586.80
2022-12-11T23:11:37.551Z,99596.00
2022-12-11T23:14:09.140Z,99588.80
2022-12-11T23:16:37.195Z,99585.80
2022-12-11T23:19:05.124Z,99592.40
2022-12-11T23:21:33.961Z,99584.00
2022-12-11T23:24:02.968Z,99590.60
2022-12-11T23:26:31.757Z,99587.20
2022-12-11T23:29:00.121Z,99588.20
2022-12-11T23:31:30.285Z,99589.00
2022-12-11T23:33:58.535Z,99592.00
2022-12-11T23:36:28.570Z,99587.00
2022-12-11T23:38:56.565Z,99579.20
2022-12-11T23:41:24.837Z,99582.80
2022-12-11T23:43:52.835Z,99579.20
2022-12-11T23:46:24.219Z,99574.60
2022-12-11T23:48:53.471Z,99571.60
2022-12-11T23:51:24.753Z,99570.80
2022-12-11T23:53:54.155Z,99571.80
2022-12-11T23:56:29.337Z,99576.40
2022-12-11T23:58:58.047Z,99567.00
